createdAt,value
2023-01-29T00:00:01.463Z,85.63
2023-01-29T00:05:12.958Z,85.74
2023-01-29T00:10:02.363Z,85.84
2023-01-29T00:15:01.269Z,85.74
2023-01-29T00:20:01.216Z,86.30
2023-01-29T00:25:01.146Z,86.19
2023-01-29T00:30:01.065Z,86.09
2023-01-29T00:35:01.007Z,86.09
2023-01-29T00:40:00.937Z,86.30
2023-01-29T00:45:00.884Z,86.62
2023-01-29T00:50:00.812Z,86.62
2023-01-29T00:55:00.792Z,87.14
2023-01-29T01:00:00.715Z,87.60
2023-01-29T01:05:00.634Z,87.92
2023-01-29T01:10:00.578Z,88.34
2023-01-29T01:15:00.524Z,88.44
2023-01-29T01:20:00.452Z,88.69
2023-01-29T01:25:00.390Z,88.80
2023-01-29T01:30:00.332Z,88.80
2023-01-29T01:35:00.275Z,88.80
2023-01-29T01:40:00.210Z,88.80
2023-01-29T01:45:00.141Z,88.90
2023-01-29T01:50:00.112Z,89.05
2023-01-29T01:55:00.017Z,88.84
2023-01-29T01:59:59.941Z,88.94
2023-01-29T02:04:59.889Z,88.94
2023-01-29T02:09:59.818Z,89.16
2023-01-29T02:14:59.773Z,89.36
2023-01-29T02:19:59.694Z,89.99
2023-01-29T02:24:59.681Z,90.94
2023-01-29T02:29:59.569Z,91.57
2023-01-29T02:34:59.499Z,91.57
2023-01-29T02:39:59.447Z,91.72
2023-01-29T02:44:59.376Z,91.72
2023-01-29T02:49:59.324Z,91.51
2023-01-29T02:54:59.260Z,91.51
2023-01-29T02:59:59.192Z,91.93
2023-01-29T03:04:59.118Z,92.04
2023-01-29T03:09:59.076Z,91.82
2023-01-29T03:14:58.994Z,91.51
2023-01-29T03:19:58.945Z,91.30
2023-01-29T03:24:58.864Z,90.98
2023-01-29T03:29:58.818Z,91.08
2023-01-29T03:34:58.741Z,90.98
2023-01-29T03:39:58.696Z,91.08
2023-01-29T03:44:58.610Z,91.19
2023-01-29T03:49:58.554Z,91.19
2023-01-29T03:54:58.484Z,91.40
2023-01-29T03:59:58.442Z,91.19
2023-01-29T04:04:58.360Z,91.30
2023-01-29T04:09:58.311Z,91.30
2023-01-29T04:14:58.230Z,91.40
2023-01-29T04:19:58.171Z,91.51
2023-01-29T04:24:58.100Z,91.51
2023-01-29T04:29:58.056Z,91.30
2023-01-29T04:34:57.973Z,91.30
2023-01-29T04:39:57.926Z,91.40
2023-01-29T04:44:57.845Z,91.40
2023-01-29T04:49:57.804Z,91.82
2023-01-29T04:54:57.724Z,91.61
2023-01-29T04:59:57.676Z,91.61
2023-01-29T05:04:57.597Z,91.51
2023-01-29T05:09:57.541Z,91.51
2023-01-29T05:14:57.470Z,91.40
2023-01-29T05:19:57.416Z,91.19
2023-01-29T05:24:57.344Z,91.40
2023-01-29T05:29:57.288Z,91.57
2023-01-29T05:34:57.218Z,91.78
2023-01-29T05:39:57.157Z,91.57
2023-01-29T05:44:57.117Z,91.47
2023-01-29T05:49:57.033Z,91.21
2023-01-29T05:54:56.963Z,91.11
2023-01-29T05:59:57.006Z,90.90
2023-01-29T06:04:56.993Z,91.07
2023-01-29T06:09:56.982Z,90.75
2023-01-29T06:14:57.057Z,90.75
2023-01-29T06:19:57.003Z,90.61
2023-01-29T06:24:57.031Z,90.39
2023-01-29T06:29:57.026Z,89.77
2023-01-29T06:34:56.470Z,90.29
2023-01-29T06:39:56.399Z,90.29
2023-01-29T06:44:56.337Z,90.25
2023-01-29T06:49:56.276Z,89.52
2023-01-29T06:54:56.210Z,89.20
2023-01-29T06:59:56.150Z,89.09
2023-01-29T07:04:56.081Z,88.68
2023-01-29T07:09:56.028Z,88.78
2023-01-29T07:14:55.970Z,89.41
2023-01-29T07:19:55.904Z,89.09
2023-01-29T07:24:55.831Z,89.37
2023-01-29T07:29:55.772Z,89.47
2023-01-29T07:34:55.713Z,89.37
2023-01-29T07:39:55.653Z,89.01
2023-01-29T07:44:55.574Z,88.81
2023-01-29T07:49:55.515Z,88.70
2023-01-29T07:54:55.449Z,88.81
2023-01-29T07:59:55.393Z,88.28
2023-01-29T08:04:55.324Z,88.39
2023-01-29T08:09:55.266Z,88.39
2023-01-29T08:14:55.204Z,90.44
2023-01-29T08:19:55.151Z,92.89
2023-01-29T08:25:06.477Z,86.65
2023-01-29T08:29:56.047Z,87.01
2023-01-29T08:34:54.968Z,87.12
2023-01-29T08:39:54.904Z,88.48
2023-01-29T08:44:54.830Z,87.91
2023-01-29T08:49:54.782Z,90.17
2023-01-29T08:54:54.701Z,88.36
2023-01-29T08:59:54.645Z,86.54
2023-01-29T09:04:54.574Z,85.60
2023-01-29T09:09:54.515Z,84.97
2023-01-29T09:14:54.449Z,85.49
2023-01-29T09:19:54.393Z,85.32
2023-01-29T09:24:54.315Z,85.95
2023-01-29T09:29:54.273Z,86.16
2023-01-29T09:34:54.183Z,86.54
2023-01-29T09:39:54.135Z,86.43
2023-01-29T09:44:54.053Z,86.23
2023-01-29T09:49:54.010Z,86.08
2023-01-29T09:54:53.931Z,85.87
2023-01-29T09:59:53.873Z,85.87
2023-01-29T10:04:53.873Z,85.62
2023-01-29T10:09:53.738Z,84.06
2023-01-29T10:14:53.660Z,84.47
2023-01-29T10:19:53.609Z,84.89
2023-01-29T10:24:53.534Z,84.85
2023-01-29T10:29:53.476Z,84.12
2023-01-29T10:34:53.401Z,87.15
2023-01-29T10:39:53.352Z,83.11
2023-01-29T10:44:53.276Z,82.31
2023-01-29T10:49:53.229Z,82.62
2023-01-29T10:54:53.152Z,82.73
2023-01-29T10:59:53.093Z,82.27
2023-01-29T11:04:53.023Z,81.75
2023-01-29T11:09:52.967Z,81.44
2023-01-29T11:14:52.903Z,79.90
2023-01-29T11:19:52.845Z,77.82
2023-01-29T11:24:52.799Z,75.74
2023-01-29T11:29:52.714Z,73.94
2023-01-29T11:34:52.640Z,72.07
2023-01-29T11:39:52.585Z,69.79
2023-01-29T11:44:52.516Z,68.11
2023-01-29T11:49:52.462Z,67.87
2023-01-29T11:54:52.388Z,68.56
2023-01-29T11:59:52.336Z,70.76
2023-01-29T12:04:52.263Z,70.17
2023-01-29T12:09:52.217Z,71.00
2023-01-29T12:14:52.137Z,72.00
2023-01-29T12:19:52.085Z,73.38
2023-01-29T12:24:52.011Z,73.80
2023-01-29T12:29:51.954Z,74.46
2023-01-29T12:34:51.885Z,75.21
2023-01-29T12:39:51.825Z,75.95
2023-01-29T12:44:51.772Z,76.50
2023-01-29T12:49:51.702Z,77.44
2023-01-29T12:54:51.627Z,77.75
2023-01-29T12:59:51.573Z,77.64
2023-01-29T13:04:51.507Z,77.58
2023-01-29T13:09:51.453Z,77.99
2023-01-29T13:14:51.375Z,78.51
2023-01-29T13:19:51.320Z,77.72
2023-01-29T13:25:03.610Z,77.50
2023-01-29T13:29:52.221Z,78.03
2023-01-29T13:34:51.125Z,79.00
2023-01-29T13:39:51.070Z,79.41
2023-01-29T13:44:50.995Z,79.55
2023-01-29T13:49:50.937Z,80.60
2023-01-29T13:54:50.893Z,80.49
2023-01-29T13:59:50.812Z,80.39
2023-01-29T14:04:50.743Z,81.12
2023-01-29T14:09:50.692Z,81.12
2023-01-29T14:14:50.625Z,81.43
2023-01-29T14:19:50.557Z,81.53
2023-01-29T14:24:50.479Z,82.06
2023-01-29T14:29:50.424Z,81.43
2023-01-29T14:34:50.350Z,82.37
2023-01-29T14:39:50.320Z,82.26
2023-01-29T14:44:50.223Z,83.14
2023-01-29T14:49:50.174Z,83.55
2023-01-29T14:54:50.093Z,83.97
2023-01-29T14:59:50.040Z,83.86
2023-01-29T15:04:49.966Z,84.17
2023-01-29T15:09:49.909Z,87.20
2023-01-29T15:14:49.836Z,85.11
2023-01-29T15:19:49.798Z,85.01
2023-01-29T15:24:49.709Z,85.32
2023-01-29T15:29:49.652Z,85.47
2023-01-29T15:34:49.610Z,85.99
2023-01-29T15:39:51.429Z,85.78
2023-01-29T15:44:49.460Z,86.19
2023-01-29T15:49:49.395Z,86.40
2023-01-29T15:54:49.322Z,86.82
2023-01-29T15:59:49.267Z,86.65
2023-01-29T16:04:49.191Z,87.28
2023-01-29T16:09:49.139Z,88.53
2023-01-29T16:14:49.066Z,87.17
2023-01-29T16:19:49.027Z,86.96
2023-01-29T16:24:48.946Z,87.39
2023-01-29T16:29:48.900Z,86.96
2023-01-29T16:34:48.815Z,87.07
2023-01-29T16:39:48.753Z,87.07
2023-01-29T16:44:48.686Z,87.07
2023-01-29T16:49:48.627Z,86.45
2023-01-29T16:54:48.566Z,85.71
2023-01-29T16:59:48.503Z,85.92
2023-01-29T17:04:48.430Z,85.44
2023-01-29T17:09:48.377Z,85.02
2023-01-29T17:14:48.302Z,84.71
2023-01-29T17:19:48.247Z,84.29
2023-01-29T17:24:48.190Z,84.61
2023-01-29T17:29:48.120Z,84.29
2023-01-29T17:34:48.045Z,84.50
2023-01-29T17:39:47.989Z,84.08
2023-01-29T17:44:47.917Z,83.98
2023-01-29T17:49:47.879Z,83.35
2023-01-29T17:54:47.805Z,83.46
2023-01-29T17:59:47.734Z,83.46
2023-01-29T18:04:47.803Z,83.70
2023-01-29T18:09:47.607Z,83.39
2023-01-29T18:14:47.539Z,83.39
2023-01-29T18:19:47.486Z,83.81
2023-01-29T18:24:47.410Z,82.87
2023-01-29T18:29:47.359Z,82.66
2023-01-29T18:34:47.283Z,82.66
2023-01-29T18:39:47.277Z,83.01
2023-01-29T18:44:47.156Z,83.22
2023-01-29T18:49:47.100Z,83.16
2023-01-29T18:54:47.030Z,83.16
2023-01-29T18:59:46.989Z,83.61
2023-01-29T19:04:46.912Z,83.40
2023-01-29T19:09:46.848Z,82.88
2023-01-29T19:14:46.772Z,82.56
2023-01-29T19:19:46.713Z,82.46
2023-01-29T19:24:46.641Z,82.36
2023-01-29T19:29:46.586Z,82.36
2023-01-29T19:34:46.508Z,82.78
2023-01-29T19:39:46.450Z,81.94
2023-01-29T19:44:46.383Z,81.31
2023-01-29T19:49:46.320Z,81.45
2023-01-29T19:54:46.272Z,81.98
2023-01-29T19:59:46.190Z,81.87
2023-01-29T20:04:46.120Z,82.12
2023-01-29T20:09:46.055Z,82.43
2023-01-29T20:14:45.992Z,82.99
2023-01-29T20:19:45.928Z,83.62
2023-01-29T20:24:45.859Z,83.27
2023-01-29T20:29:45.796Z,83.48
2023-01-29T20:34:45.722Z,82.99
2023-01-29T20:39:45.662Z,83.52
2023-01-29T20:44:45.593Z,83.62
2023-01-29T20:49:45.539Z,84.25
2023-01-29T20:54:45.462Z,84.56
2023-01-29T20:59:45.404Z,84.08
2023-01-29T21:04:45.341Z,84.28
2023-01-29T21:09:45.282Z,84.81
2023-01-29T21:14:45.208Z,85.02
2023-01-29T21:19:45.157Z,84.91
2023-01-29T21:24:45.084Z,84.60
2023-01-29T21:29:45.022Z,83.72
2023-01-29T21:34:44.953Z,84.14
2023-01-29T21:39:44.889Z,84.46
2023-01-29T21:44:44.819Z,83.20
2023-01-29T21:49:44.768Z,82.89
2023-01-29T21:54:44.695Z,82.33
2023-01-29T21:59:47.026Z,82.64
2023-01-29T22:04:44.570Z,82.01
2023-01-29T22:09:44.517Z,81.59
2023-01-29T22:14:44.445Z,81.70
2023-01-29T22:19:44.388Z,81.49
2023-01-29T22:24:44.314Z,81.18
2023-01-29T22:29:44.257Z,81.21
2023-01-29T22:34:44.183Z,81.42
2023-01-29T22:39:44.125Z,82.36
2023-01-29T22:44:44.061Z,82.29
2023-01-29T22:49:43.999Z,83.24
2023-01-29T22:54:43.938Z,83.97
2023-01-29T22:59:43.871Z,83.55
2023-01-29T23:04:43.866Z,83.45
2023-01-29T23:09:43.747Z,83.24
2023-01-29T23:14:43.664Z,83.55
2023-01-29T23:19:43.609Z,83.45
2023-01-29T23:24:43.542Z,82.61
2023-01-29T23:29:43.485Z,82.40
2023-01-29T23:34:43.420Z,82.61
2023-01-29T23:39:43.362Z,83.07
2023-01-29T23:44:43.285Z,83.48
2023-01-29T23:49:43.226Z,83.91
2023-01-29T23:54:43.169Z,84.33
2023-01-29T23:59:43.134Z,84.74
